sensor_id;sensor_type;location;lat;lon;timestamp;P1;durP1;ratioP1;P2;durP2;ratioP2
46589;SDS011;32313;48.722;9.362;2022-08-16T00:00:30;18.93;;;15.27;;
46589;SDS011;32313;48.722;9.362;2022-08-16T00:02:58;16.17;;;14.13;;
46589;SDS011;32313;48.722;9.362;2022-08-16T00:05:25;14.87;;;13.37;;
46589;SDS011;32313;48.722;9.362;2022-08-16T00:07:52;17.83;;;15.03;;
46589;SDS011;32313;48.722;9.362;2022-08-16T00:10:19;19.10;;;14.83;;
46589;SDS011;32313;48.722;9.362;2022-08-16T00:12:45;17.33;;;15.30;;
46589;SDS011;32313;48.722;9.362;2022-08-16T00:15:13;19.17;;;16.67;;
46589;SDS011;32313;48.722;9.362;2022-08-16T00:17:41;17.73;;;14.80;;
46589;SDS011;32313;48.722;9.362;2022-08-16T00:20:07;17.13;;;15.27;;
46589;SDS011;32313;48.722;9.362;2022-08-16T00:22:35;17.20;;;15.40;;
46589;SDS011;32313;48.722;9.362;2022-08-16T00:25:03;18.63;;;13.93;;
46589;SDS011;32313;48.722;9.362;2022-08-16T00:27:31;19.43;;;16.33;;
46589;SDS011;32313;48.722;9.362;2022-08-16T00:29:57;15.37;;;13.77;;
46589;SDS011;32313;48.722;9.362;2022-08-16T00:32:23;16.07;;;13.37;;
46589;SDS011;32313;48.722;9.362;2022-08-16T00:34:48;17.93;;;14.63;;
46589;SDS011;32313;48.722;9.362;2022-08-16T00:37:14;24.87;;;18.27;;
46589;SDS011;32313;48.722;9.362;2022-08-16T00:39:42;17.50;;;14.30;;
46589;SDS011;32313;48.722;9.362;2022-08-16T00:42:07;15.97;;;13.80;;
46589;SDS011;32313;48.722;9.362;2022-08-16T00:44:33;21.83;;;16.73;;
46589;SDS011;32313;48.722;9.362;2022-08-16T00:47:02;23.97;;;17.53;;
46589;SDS011;32313;48.722;9.362;2022-08-16T00:49:33;20.47;;;17.23;;
46589;SDS011;32313;48.722;9.362;2022-08-16T00:51:59;16.43;;;14.73;;
46589;SDS011;32313;48.722;9.362;2022-08-16T00:54:26;18.43;;;15.43;;
46589;SDS011;32313;48.722;9.362;2022-08-16T00:56:54;16.90;;;14.00;;
46589;SDS011;32313;48.722;9.362;2022-08-16T00:59:22;16.70;;;14.10;;
46589;SDS011;32313;48.722;9.362;2022-08-16T01:01:50;16.40;;;14.63;;
46589;SDS011;32313;48.722;9.362;2022-08-16T01:04:18;15.80;;;13.67;;
46589;SDS011;32313;48.722;9.362;2022-08-16T01:06:46;16.20;;;14.60;;
46589;SDS011;32313;48.722;9.362;2022-08-16T01:09:12;16.10;;;14.40;;
46589;SDS011;32313;48.722;9.362;2022-08-16T01:11:38;18.53;;;14.73;;
46589;SDS011;32313;48.722;9.362;2022-08-16T01:14:10;16.37;;;14.67;;
46589;SDS011;32313;48.722;9.362;2022-08-16T01:16:43;19.30;;;15.27;;
46589;SDS011;32313;48.722;9.362;2022-08-16T01:19:27;15.53;;;13.90;;
46589;SDS011;32313;48.722;9.362;2022-08-16T01:22:00;17.20;;;14.87;;
46589;SDS011;32313;48.722;9.362;2022-08-16T01:24:46;16.10;;;14.30;;
46589;SDS011;32313;48.722;9.362;2022-08-16T01:27:35;16.40;;;14.67;;
46589;SDS011;32313;48.722;9.362;2022-08-16T01:30:09;18.13;;;15.47;;
46589;SDS011;32313;48.722;9.362;2022-08-16T01:32:40;16.40;;;14.73;;
46589;SDS011;32313;48.722;9.362;2022-08-16T01:37:50;17.23;;;15.07;;
46589;SDS011;32313;48.722;9.362;2022-08-16T01:40:20;16.23;;;14.00;;
46589;SDS011;32313;48.722;9.362;2022-08-16T01:42:49;16.10;;;14.43;;
46589;SDS011;32313;48.722;9.362;2022-08-16T01:45:17;16.40;;;13.90;;
46589;SDS011;32313;48.722;9.362;2022-08-16T01:47:43;16.03;;;14.33;;
46589;SDS011;32313;48.722;9.362;2022-08-16T01:50:11;17.07;;;14.87;;
46589;SDS011;32313;48.722;9.362;2022-08-16T01:52:37;22.47;;;17.33;;
46589;SDS011;32313;48.722;9.362;2022-08-16T01:55:11;18.63;;;16.67;;
46589;SDS011;32313;48.722;9.362;2022-08-16T01:57:37;17.30;;;15.50;;
46589;SDS011;32313;48.722;9.362;2022-08-16T02:00:05;23.13;;;16.70;;
46589;SDS011;32313;48.722;9.362;2022-08-16T02:02:38;16.73;;;14.90;;
46589;SDS011;32313;48.722;9.362;2022-08-16T02:05:05;16.30;;;14.57;;
46589;SDS011;32313;48.722;9.362;2022-08-16T02:07:32;22.53;;;17.70;;
46589;SDS011;32313;48.722;9.362;2022-08-16T02:09:58;17.83;;;15.03;;
46589;SDS011;32313;48.722;9.362;2022-08-16T02:12:27;21.93;;;17.73;;
46589;SDS011;32313;48.722;9.362;2022-08-16T02:14:54;20.57;;;16.37;;
46589;SDS011;32313;48.722;9.362;2022-08-16T02:17:20;17.47;;;15.53;;
46589;SDS011;32313;48.722;9.362;2022-08-16T02:19:45;23.13;;;17.13;;
46589;SDS011;32313;48.722;9.362;2022-08-16T02:22:14;22.93;;;18.00;;
46589;SDS011;32313;48.722;9.362;2022-08-16T02:24:43;17.33;;;15.23;;
46589;SDS011;32313;48.722;9.362;2022-08-16T02:27:09;29.03;;;21.03;;
46589;SDS011;32313;48.722;9.362;2022-08-16T02:29:35;29.57;;;19.27;;
46589;SDS011;32313;48.722;9.362;2022-08-16T02:32:03;23.13;;;18.50;;
46589;SDS011;32313;48.722;9.362;2022-08-16T02:34:29;21.30;;;18.47;;
46589;SDS011;32313;48.722;9.362;2022-08-16T02:36:55;24.53;;;19.43;;
46589;SDS011;32313;48.722;9.362;2022-08-16T02:39:23;22.53;;;18.70;;
46589;SDS011;32313;48.722;9.362;2022-08-16T02:41:49;24.50;;;19.47;;
46589;SDS011;32313;48.722;9.362;2022-08-16T02:44:17;22.50;;;18.67;;
46589;SDS011;32313;48.722;9.362;2022-08-16T02:46:47;23.07;;;18.77;;
46589;SDS011;32313;48.722;9.362;2022-08-16T02:49:12;23.43;;;19.47;;
46589;SDS011;32313;48.722;9.362;2022-08-16T02:51:39;24.73;;;19.27;;
46589;SDS011;32313;48.722;9.362;2022-08-16T02:54:06;21.93;;;18.57;;
46589;SDS011;32313;48.722;9.362;2022-08-16T02:56:34;20.43;;;18.07;;
46589;SDS011;32313;48.722;9.362;2022-08-16T02:59:00;19.67;;;16.73;;
46589;SDS011;32313;48.722;9.362;2022-08-16T03:01:28;21.30;;;17.50;;
46589;SDS011;32313;48.722;9.362;2022-08-16T03:03:56;21.37;;;16.97;;
46589;SDS011;32313;48.722;9.362;2022-08-16T03:06:27;20.00;;;17.03;;
46589;SDS011;32313;48.722;9.362;2022-08-16T03:08:57;20.37;;;16.97;;
46589;SDS011;32313;48.722;9.362;2022-08-16T03:11:24;19.33;;;16.33;;
46589;SDS011;32313;48.722;9.362;2022-08-16T03:13:52;17.67;;;15.73;;
46589;SDS011;32313;48.722;9.362;2022-08-16T03:16:19;20.47;;;18.27;;
46589;SDS011;32313;48.722;9.362;2022-08-16T03:18:46;18.67;;;16.07;;
46589;SDS011;32313;48.722;9.362;2022-08-16T03:21:12;19.87;;;15.23;;
46589;SDS011;32313;48.722;9.362;2022-08-16T03:23:40;17.40;;;15.60;;
46589;SDS011;32313;48.722;9.362;2022-08-16T03:26:09;20.83;;;16.40;;
46589;SDS011;32313;48.722;9.362;2022-08-16T03:28:35;18.73;;;16.87;;
46589;SDS011;32313;48.722;9.362;2022-08-16T03:31:02;17.63;;;15.73;;
46589;SDS011;32313;48.722;9.362;2022-08-16T03:33:28;20.87;;;16.83;;
46589;SDS011;32313;48.722;9.362;2022-08-16T03:35:55;18.47;;;16.67;;
46589;SDS011;32313;48.722;9.362;2022-08-16T03:38:37;17.80;;;15.90;;
46589;SDS011;32313;48.722;9.362;2022-08-16T03:41:07;19.00;;;16.20;;
46589;SDS011;32313;48.722;9.362;2022-08-16T03:43:33;19.03;;;17.03;;
46589;SDS011;32313;48.722;9.362;2022-08-16T03:46:00;21.80;;;16.83;;
46589;SDS011;32313;48.722;9.362;2022-08-16T03:48:31;19.73;;;16.30;;
46589;SDS011;32313;48.722;9.362;2022-08-16T03:51:01;20.03;;;16.47;;
46589;SDS011;32313;48.722;9.362;2022-08-16T03:53:31;19.40;;;16.40;;
46589;SDS011;32313;48.722;9.362;2022-08-16T03:55:58;18.40;;;15.97;;
46589;SDS011;32313;48.722;9.362;2022-08-16T03:58:24;18.90;;;15.50;;
46589;SDS011;32313;48.722;9.362;2022-08-16T04:00:50;17.43;;;15.70;;
46589;SDS011;32313;48.722;9.362;2022-08-16T04:03:16;18.57;;;15.53;;
46589;SDS011;32313;48.722;9.362;2022-08-16T04:05:44;17.40;;;15.60;;
46589;SDS011;32313;48.722;9.362;2022-08-16T04:08:13;16.73;;;14.90;;
46589;SDS011;32313;48.722;9.362;2022-08-16T04:10:40;19.70;;;16.33;;
46589;SDS011;32313;48.722;9.362;2022-08-16T04:13:06;20.20;;;15.53;;
46589;SDS011;32313;48.722;9.362;2022-08-16T04:15:32;16.63;;;14.70;;
46589;SDS011;32313;48.722;9.362;2022-08-16T04:18:13;18.10;;;15.97;;
46589;SDS011;32313;48.722;9.362;2022-08-16T04:20:40;20.87;;;16.70;;
46589;SDS011;32313;48.722;9.362;2022-08-16T04:23:07;20.97;;;17.40;;
46589;SDS011;32313;48.722;9.362;2022-08-16T04:25:36;18.07;;;15.97;;
46589;SDS011;32313;48.722;9.362;2022-08-16T04:28:03;18.47;;;16.50;;
46589;SDS011;32313;48.722;9.362;2022-08-16T04:30:30;18.70;;;16.80;;
46589;SDS011;32313;48.722;9.362;2022-08-16T04:32:56;19.00;;;16.60;;
46589;SDS011;32313;48.722;9.362;2022-08-16T04:35:23;19.00;;;16.73;;
46589;SDS011;32313;48.722;9.362;2022-08-16T04:37:50;22.03;;;17.97;;
46589;SDS011;32313;48.722;9.362;2022-08-16T04:40:23;20.17;;;17.40;;
46589;SDS011;32313;48.722;9.362;2022-08-16T04:42:52;20.43;;;18.33;;
46589;SDS011;32313;48.722;9.362;2022-08-16T04:45:22;23.27;;;19.20;;
46589;SDS011;32313;48.722;9.362;2022-08-16T04:47:49;21.57;;;17.90;;
46589;SDS011;32313;48.722;9.362;2022-08-16T04:50:20;22.77;;;19.23;;
46589;SDS011;32313;48.722;9.362;2022-08-16T04:53:07;22.57;;;19.03;;
46589;SDS011;32313;48.722;9.362;2022-08-16T04:55:35;22.80;;;20.27;;
46589;SDS011;32313;48.722;9.362;2022-08-16T04:58:01;23.60;;;20.33;;
46589;SDS011;32313;48.722;9.362;2022-08-16T05:00:29;22.83;;;19.97;;
46589;SDS011;32313;48.722;9.362;2022-08-16T05:03:13;21.50;;;19.30;;
46589;SDS011;32313;48.722;9.362;2022-08-16T05:05:44;20.13;;;18.03;;
46589;SDS011;32313;48.722;9.362;2022-08-16T05:08:13;20.57;;;18.23;;
46589;SDS011;32313;48.722;9.362;2022-08-16T05:10:43;22.47;;;19.60;;
46589;SDS011;32313;48.722;9.362;2022-08-16T05:13:09;19.87;;;17.67;;
46589;SDS011;32313;48.722;9.362;2022-08-16T05:15:35;22.50;;;18.10;;
46589;SDS011;32313;48.722;9.362;2022-08-16T05:18:02;20.90;;;17.73;;
46589;SDS011;32313;48.722;9.362;2022-08-16T05:20:32;21.97;;;19.57;;
46589;SDS011;32313;48.722;9.362;2022-08-16T05:22:59;19.00;;;16.90;;
46589;SDS011;32313;48.722;9.362;2022-08-16T05:25:24;20.83;;;17.77;;
46589;SDS011;32313;48.722;9.362;2022-08-16T05:27:52;19.20;;;16.17;;
46589;SDS011;32313;48.722;9.362;2022-08-16T05:30:20;18.10;;;16.30;;
46589;SDS011;32313;48.722;9.362;2022-08-16T05:32:47;19.83;;;17.27;;
46589;SDS011;32313;48.722;9.362;2022-08-16T05:35:14;20.03;;;17.90;;
46589;SDS011;32313;48.722;9.362;2022-08-16T05:37:51;21.07;;;17.60;;
46589;SDS011;32313;48.722;9.362;2022-08-16T05:40:17;17.77;;;15.30;;
46589;SDS011;32313;48.722;9.362;2022-08-16T05:42:43;23.33;;;17.20;;
46589;SDS011;32313;48.722;9.362;2022-08-16T05:45:09;18.63;;;16.20;;
46589;SDS011;32313;48.722;9.362;2022-08-16T05:47:36;18.37;;;16.17;;
46589;SDS011;32313;48.722;9.362;2022-08-16T05:50:02;18.67;;;15.00;;
46589;SDS011;32313;48.722;9.362;2022-08-16T05:52:30;15.10;;;13.23;;
46589;SDS011;32313;48.722;9.362;2022-08-16T05:54:59;19.23;;;15.63;;
46589;SDS011;32313;48.722;9.362;2022-08-16T05:57:26;18.63;;;15.77;;
46589;SDS011;32313;48.722;9.362;2022-08-16T05:59:52;19.67;;;16.27;;
46589;SDS011;32313;48.722;9.362;2022-08-16T06:02:18;17.50;;;14.60;;
46589;SDS011;32313;48.722;9.362;2022-08-16T06:04:46;16.63;;;14.60;;
46589;SDS011;32313;48.722;9.362;2022-08-16T06:07:14;17.83;;;14.40;;
46589;SDS011;32313;48.722;9.362;2022-08-16T06:09:46;16.27;;;14.57;;
46589;SDS011;32313;48.722;9.362;2022-08-16T06:12:14;16.40;;;14.13;;
46589;SDS011;32313;48.722;9.362;2022-08-16T06:14:40;17.57;;;14.87;;
46589;SDS011;32313;48.722;9.362;2022-08-16T06:17:06;14.50;;;13.03;;
46589;SDS011;32313;48.722;9.362;2022-08-16T06:19:32;14.67;;;13.13;;
46589;SDS011;32313;48.722;9.362;2022-08-16T06:22:04;18.63;;;13.77;;
46589;SDS011;32313;48.722;9.362;2022-08-16T06:24:32;17.90;;;16.00;;
46589;SDS011;32313;48.722;9.362;2022-08-16T06:26:58;19.33;;;16.00;;
46589;SDS011;32313;48.722;9.362;2022-08-16T06:29:30;18.67;;;14.47;;
46589;SDS011;32313;48.722;9.362;2022-08-16T06:31:55;18.07;;;16.17;;
46589;SDS011;32313;48.722;9.362;2022-08-16T06:34:23;18.10;;;16.00;;
46589;SDS011;32313;48.722;9.362;2022-08-16T06:36:49;15.57;;;13.97;;
46589;SDS011;32313;48.722;9.362;2022-08-16T06:39:20;17.90;;;15.50;;
46589;SDS011;32313;48.722;9.362;2022-08-16T06:41:52;17.07;;;15.33;;
46589;SDS011;32313;48.722;9.362;2022-08-16T06:44:38;15.87;;;14.27;;
46589;SDS011;32313;48.722;9.362;2022-08-16T06:47:08;13.97;;;12.67;;
46589;SDS011;32313;48.722;9.362;2022-08-16T06:49:34;13.43;;;12.03;;
46589;SDS011;32313;48.722;9.362;2022-08-16T06:52:00;12.00;;;10.80;;
46589;SDS011;32313;48.722;9.362;2022-08-16T06:54:27;12.07;;;11.07;;
46589;SDS011;32313;48.722;9.362;2022-08-16T06:56:53;11.33;;;10.13;;
46589;SDS011;32313;48.722;9.362;2022-08-16T06:59:19;10.40;;;9.53;;
46589;SDS011;32313;48.722;9.362;2022-08-16T07:01:48;9.90;;;8.67;;
46589;SDS011;32313;48.722;9.362;2022-08-16T07:04:15;8.97;;;7.57;;
46589;SDS011;32313;48.722;9.362;2022-08-16T07:06:42;9.53;;;7.77;;
46589;SDS011;32313;48.722;9.362;2022-08-16T07:09:12;8.00;;;7.17;;
46589;SDS011;32313;48.722;9.362;2022-08-16T07:11:42;8.83;;;7.93;;
46589;SDS011;32313;48.722;9.362;2022-08-16T07:14:09;7.90;;;6.47;;
46589;SDS011;32313;48.722;9.362;2022-08-16T07:16:42;7.20;;;6.10;;
46589;SDS011;32313;48.722;9.362;2022-08-16T07:19:08;7.33;;;5.40;;
46589;SDS011;32313;48.722;9.362;2022-08-16T07:21:35;7.47;;;4.93;;
46589;SDS011;32313;48.722;9.362;2022-08-16T07:24:04;5.80;;;5.20;;
46589;SDS011;32313;48.722;9.362;2022-08-16T07:26:32;5.53;;;5.00;;
46589;SDS011;32313;48.722;9.362;2022-08-16T07:28:59;5.13;;;4.53;;
46589;SDS011;32313;48.722;9.362;2022-08-16T07:31:25;5.83;;;4.67;;
46589;SDS011;32313;48.722;9.362;2022-08-16T07:33:51;5.57;;;4.23;;
46589;SDS011;32313;48.722;9.362;2022-08-16T07:36:17;7.43;;;4.57;;
46589;SDS011;32313;48.722;9.362;2022-08-16T07:38:45;7.50;;;4.87;;
46589;SDS011;32313;48.722;9.362;2022-08-16T07:41:12;6.13;;;4.93;;
46589;SDS011;32313;48.722;9.362;2022-08-16T07:43:42;5.83;;;4.50;;
46589;SDS011;32313;48.722;9.362;2022-08-16T07:46:08;5.03;;;3.67;;
46589;SDS011;32313;48.722;9.362;2022-08-16T07:48:38;4.30;;;3.90;;
46589;SDS011;32313;48.722;9.362;2022-08-16T07:51:04;4.88;;;4.43;;
46589;SDS011;32313;48.722;9.362;2022-08-16T07:53:31;5.05;;;3.90;;
46589;SDS011;32313;48.722;9.362;2022-08-16T07:55:59;4.95;;;4.32;;
46589;SDS011;32313;48.722;9.362;2022-08-16T07:58:31;5.40;;;4.00;;
46589;SDS011;32313;48.722;9.362;2022-08-16T08:00:59;5.40;;;4.07;;
46589;SDS011;32313;48.722;9.362;2022-08-16T08:03:26;4.88;;;3.83;;
46589;SDS011;32313;48.722;9.362;2022-08-16T08:05:54;4.63;;;3.95;;
46589;SDS011;32313;48.722;9.362;2022-08-16T08:08:20;7.07;;;3.63;;
46589;SDS011;32313;48.722;9.362;2022-08-16T08:10:46;4.22;;;3.80;;
46589;SDS011;32313;48.722;9.362;2022-08-16T08:13:12;5.25;;;4.05;;
46589;SDS011;32313;48.722;9.362;2022-08-16T08:15:40;4.55;;;3.80;;
46589;SDS011;32313;48.722;9.362;2022-08-16T08:18:05;5.97;;;3.70;;
46589;SDS011;32313;48.722;9.362;2022-08-16T08:20:34;4.80;;;4.10;;
46589;SDS011;32313;48.722;9.362;2022-08-16T08:23:02;6.47;;;3.72;;
46589;SDS011;32313;48.722;9.362;2022-08-16T08:25:36;4.93;;;3.88;;
46589;SDS011;32313;48.722;9.362;2022-08-16T08:28:02;3.72;;;3.17;;
46589;SDS011;32313;48.722;9.362;2022-08-16T08:30:28;4.40;;;3.80;;
46589;SDS011;32313;48.722;9.362;2022-08-16T08:32:55;4.18;;;3.78;;
46589;SDS011;32313;48.722;9.362;2022-08-16T08:35:20;4.35;;;3.38;;
46589;SDS011;32313;48.722;9.362;2022-08-16T08:37:47;5.47;;;3.38;;
46589;SDS011;32313;48.722;9.362;2022-08-16T08:40:14;4.75;;;3.65;;
46589;SDS011;32313;48.722;9.362;2022-08-16T08:42:40;5.53;;;3.60;;
46589;SDS011;32313;48.722;9.362;2022-08-16T08:45:09;4.30;;;3.45;;
46589;SDS011;32313;48.722;9.362;2022-08-16T08:47:36;3.80;;;3.50;;
46589;SDS011;32313;48.722;9.362;2022-08-16T08:50:04;5.97;;;3.70;;
46589;SDS011;32313;48.722;9.362;2022-08-16T08:52:31;4.22;;;3.92;;
46589;SDS011;32313;48.722;9.362;2022-08-16T08:54:57;3.58;;;3.17;;
46589;SDS011;32313;48.722;9.362;2022-08-16T08:57:24;3.45;;;3.13;;
46589;SDS011;32313;48.722;9.362;2022-08-16T09:00:11;5.32;;;3.60;;
46589;SDS011;32313;48.722;9.362;2022-08-16T09:02:41;3.75;;;3.30;;
46589;SDS011;32313;48.722;9.362;2022-08-16T09:05:08;4.50;;;3.22;;
46589;SDS011;32313;48.722;9.362;2022-08-16T09:07:34;3.70;;;3.13;;
46589;SDS011;32313;48.722;9.362;2022-08-16T09:10:02;4.70;;;3.58;;
46589;SDS011;32313;48.722;9.362;2022-08-16T09:12:31;5.65;;;3.35;;
46589;SDS011;32313;48.722;9.362;2022-08-16T09:15:02;3.88;;;3.38;;
46589;SDS011;32313;48.722;9.362;2022-08-16T09:17:29;3.80;;;3.38;;
46589;SDS011;32313;48.722;9.362;2022-08-16T09:19:55;5.25;;;3.80;;
46589;SDS011;32313;48.722;9.362;2022-08-16T09:22:22;4.35;;;3.25;;
46589;SDS011;32313;48.722;9.362;2022-08-16T09:24:50;4.30;;;3.55;;
46589;SDS011;32313;48.722;9.362;2022-08-16T09:27:16;6.35;;;3.70;;
46589;SDS011;32313;48.722;9.362;2022-08-16T09:29:43;3.40;;;2.97;;
46589;SDS011;32313;48.722;9.362;2022-08-16T09:32:08;5.10;;;3.40;;
46589;SDS011;32313;48.722;9.362;2022-08-16T09:34:34;2.78;;;2.58;;
46589;SDS011;32313;48.722;9.362;2022-08-16T09:37:00;4.03;;;3.20;;
46589;SDS011;32313;48.722;9.362;2022-08-16T09:39:26;3.33;;;3.00;;
46589;SDS011;32313;48.722;9.362;2022-08-16T09:41:53;4.13;;;3.03;;
46589;SDS011;32313;48.722;9.362;2022-08-16T09:44:23;4.15;;;3.05;;
46589;SDS011;32313;48.722;9.362;2022-08-16T09:46:51;3.70;;;3.00;;
46589;SDS011;32313;48.722;9.362;2022-08-16T09:49:18;4.53;;;2.80;;
46589;SDS011;32313;48.722;9.362;2022-08-16T09:51:44;4.05;;;3.20;;
46589;SDS011;32313;48.722;9.362;2022-08-16T09:54:11;4.60;;;2.92;;
46589;SDS011;32313;48.722;9.362;2022-08-16T09:56:39;3.42;;;3.13;;
46589;SDS011;32313;48.722;9.362;2022-08-16T09:59:06;4.85;;;3.50;;
46589;SDS011;32313;48.722;9.362;2022-08-16T10:01:37;3.92;;;2.88;;
46589;SDS011;32313;48.722;9.362;2022-08-16T10:04:04;6.20;;;3.30;;
46589;SDS011;32313;48.722;9.362;2022-08-16T10:06:30;5.05;;;2.90;;
46589;SDS011;32313;48.722;9.362;2022-08-16T10:08:57;5.50;;;3.30;;
46589;SDS011;32313;48.722;9.362;2022-08-16T10:11:22;4.93;;;3.08;;
46589;SDS011;32313;48.722;9.362;2022-08-16T10:14:06;3.92;;;3.30;;
46589;SDS011;32313;48.722;9.362;2022-08-16T10:16:32;3.88;;;3.38;;
46589;SDS011;32313;48.722;9.362;2022-08-16T10:18:58;5.05;;;3.17;;
46589;SDS011;32313;48.722;9.362;2022-08-16T10:21:25;3.90;;;3.50;;
46589;SDS011;32313;48.722;9.362;2022-08-16T10:23:52;5.93;;;3.47;;
46589;SDS011;32313;48.722;9.362;2022-08-16T10:26:18;5.05;;;3.65;;
46589;SDS011;32313;48.722;9.362;2022-08-16T10:28:46;4.72;;;3.00;;
46589;SDS011;32313;48.722;9.362;2022-08-16T10:31:11;5.15;;;3.75;;
46589;SDS011;32313;48.722;9.362;2022-08-16T10:33:38;4.18;;;3.20;;
46589;SDS011;32313;48.722;9.362;2022-08-16T10:36:04;5.95;;;3.95;;
46589;SDS011;32313;48.722;9.362;2022-08-16T10:38:33;5.78;;;3.40;;
46589;SDS011;32313;48.722;9.362;2022-08-16T10:41:00;5.53;;;3.80;;
46589;SDS011;32313;48.722;9.362;2022-08-16T10:43:27;4.80;;;3.70;;
46589;SDS011;32313;48.722;9.362;2022-08-16T10:45:53;3.80;;;3.45;;
46589;SDS011;32313;48.722;9.362;2022-08-16T10:48:19;4.20;;;3.38;;
46589;SDS011;32313;48.722;9.362;2022-08-16T10:50:45;4.45;;;3.40;;
46589;SDS011;32313;48.722;9.362;2022-08-16T10:53:10;4.95;;;3.10;;
46589;SDS011;32313;48.722;9.362;2022-08-16T10:55:37;4.47;;;2.90;;
46589;SDS011;32313;48.722;9.362;2022-08-16T10:58:08;4.47;;;3.10;;
46589;SDS011;32313;48.722;9.362;2022-08-16T11:00:36;4.03;;;3.10;;
46589;SDS011;32313;48.722;9.362;2022-08-16T11:03:04;4.32;;;3.30;;
46589;SDS011;32313;48.722;9.362;2022-08-16T11:05:32;3.35;;;2.92;;
46589;SDS011;32313;48.722;9.362;2022-08-16T11:07:59;3.47;;;3.10;;
46589;SDS011;32313;48.722;9.362;2022-08-16T11:10:27;5.05;;;3.08;;
46589;SDS011;32313;48.722;9.362;2022-08-16T11:12:56;4.70;;;3.15;;
46589;SDS011;32313;48.722;9.362;2022-08-16T11:15:22;3.92;;;3.10;;
46589;SDS011;32313;48.722;9.362;2022-08-16T11:17:49;4.95;;;3.03;;
46589;SDS011;32313;48.722;9.362;2022-08-16T11:20:16;3.55;;;3.00;;
46589;SDS011;32313;48.722;9.362;2022-08-16T11:22:43;3.88;;;2.70;;
46589;SDS011;32313;48.722;9.362;2022-08-16T11:25:12;3.15;;;2.78;;
46589;SDS011;32313;48.722;9.362;2022-08-16T11:27:39;2.78;;;2.58;;
46589;SDS011;32313;48.722;9.362;2022-08-16T11:30:06;2.80;;;2.60;;
46589;SDS011;32313;48.722;9.362;2022-08-16T11:32:34;3.08;;;2.80;;
46589;SDS011;32313;48.722;9.362;2022-08-16T11:35:03;3.45;;;2.85;;
46589;SDS011;32313;48.722;9.362;2022-08-16T11:37:32;4.15;;;2.85;;
46589;SDS011;32313;48.722;9.362;2022-08-16T11:39:59;3.10;;;2.80;;
46589;SDS011;32313;48.722;9.362;2022-08-16T11:42:26;3.03;;;2.63;;
46589;SDS011;32313;48.722;9.362;2022-08-16T11:44:51;3.65;;;2.90;;
46589;SDS011;32313;48.722;9.362;2022-08-16T11:47:17;3.47;;;3.00;;
46589;SDS011;32313;48.722;9.362;2022-08-16T11:49:43;3.20;;;2.90;;
46589;SDS011;32313;48.722;9.362;2022-08-16T11:52:09;4.40;;;3.10;;
46589;SDS011;32313;48.722;9.362;2022-08-16T11:54:35;3.17;;;2.80;;
46589;SDS011;32313;48.722;9.362;2022-08-16T11:57:01;2.88;;;2.42;;
46589;SDS011;32313;48.722;9.362;2022-08-16T11:59:26;3.03;;;2.50;;
46589;SDS011;32313;48.722;9.362;2022-08-16T12:01:53;4.50;;;2.70;;
46589;SDS011;32313;48.722;9.362;2022-08-16T12:04:20;3.92;;;2.35;;
46589;SDS011;32313;48.722;9.362;2022-08-16T12:06:46;2.65;;;2.30;;
46589;SDS011;32313;48.722;9.362;2022-08-16T12:09:12;4.88;;;2.58;;
46589;SDS011;32313;48.722;9.362;2022-08-16T12:11:38;4.32;;;2.80;;
46589;SDS011;32313;48.722;9.362;2022-08-16T12:14:04;3.75;;;2.72;;
46589;SDS011;32313;48.722;9.362;2022-08-16T12:16:31;4.13;;;2.17;;
46589;SDS011;32313;48.722;9.362;2022-08-16T12:18:58;3.53;;;2.47;;
46589;SDS011;32313;48.722;9.362;2022-08-16T12:21:24;4.72;;;2.47;;
46589;SDS011;32313;48.722;9.362;2022-08-16T12:23:50;4.35;;;2.45;;
46589;SDS011;32313;48.722;9.362;2022-08-16T12:26:16;2.97;;;2.40;;
46589;SDS011;32313;48.722;9.362;2022-08-16T12:28:42;4.95;;;2.60;;
46589;SDS011;32313;48.722;9.362;2022-08-16T12:31:08;4.68;;;2.40;;
46589;SDS011;32313;48.722;9.362;2022-08-16T12:33:33;3.30;;;2.63;;
46589;SDS011;32313;48.722;9.362;2022-08-16T12:35:59;2.53;;;2.30;;
46589;SDS011;32313;48.722;9.362;2022-08-16T12:38:25;2.53;;;2.33;;
46589;SDS011;32313;48.722;9.362;2022-08-16T12:40:51;4.22;;;2.60;;
46589;SDS011;32313;48.722;9.362;2022-08-16T12:43:17;4.10;;;2.38;;
46589;SDS011;32313;48.722;9.362;2022-08-16T12:45:47;2.60;;;2.20;;
46589;SDS011;32313;48.722;9.362;2022-08-16T12:48:15;3.30;;;2.55;;
46589;SDS011;32313;48.722;9.362;2022-08-16T12:51:03;3.97;;;2.33;;
46589;SDS011;32313;48.722;9.362;2022-08-16T12:53:32;3.40;;;2.40;;
46589;SDS011;32313;48.722;9.362;2022-08-16T12:56:03;3.22;;;2.35;;
46589;SDS011;32313;48.722;9.362;2022-08-16T12:58:29;3.97;;;2.40;;
46589;SDS011;32313;48.722;9.362;2022-08-16T13:00:55;5.97;;;2.10;;
46589;SDS011;32313;48.722;9.362;2022-08-16T13:03:21;6.78;;;2.55;;
46589;SDS011;32313;48.722;9.362;2022-08-16T13:05:47;3.08;;;2.33;;
46589;SDS011;32313;48.722;9.362;2022-08-16T13:08:15;3.55;;;2.58;;
46589;SDS011;32313;48.722;9.362;2022-08-16T13:10:43;3.28;;;2.30;;
46589;SDS011;32313;48.722;9.362;2022-08-16T13:13:13;3.35;;;2.40;;
46589;SDS011;32313;48.722;9.362;2022-08-16T13:15:45;2.58;;;2.38;;
46589;SDS011;32313;48.722;9.362;2022-08-16T13:18:10;3.95;;;2.25;;
46589;SDS011;32313;48.722;9.362;2022-08-16T13:20:36;3.63;;;2.40;;
46589;SDS011;32313;48.722;9.362;2022-08-16T13:23:06;3.88;;;2.33;;
46589;SDS011;32313;48.722;9.362;2022-08-16T13:25:36;4.45;;;2.67;;
46589;SDS011;32313;48.722;9.362;2022-08-16T13:28:04;5.38;;;2.55;;
46589;SDS011;32313;48.722;9.362;2022-08-16T13:30:35;3.05;;;2.45;;
46589;SDS011;32313;48.722;9.362;2022-08-16T13:33:05;3.92;;;2.53;;
46589;SDS011;32313;48.722;9.362;2022-08-16T13:35:31;2.83;;;2.25;;
46589;SDS011;32313;48.722;9.362;2022-08-16T13:37:58;2.42;;;2.22;;
46589;SDS011;32313;48.722;9.362;2022-08-16T13:40:24;2.25;;;2.05;;
46589;SDS011;32313;48.722;9.362;2022-08-16T13:42:53;2.28;;;1.98;;
46589;SDS011;32313;48.722;9.362;2022-08-16T13:45:19;3.10;;;2.30;;
46589;SDS011;32313;48.722;9.362;2022-08-16T13:47:44;2.33;;;2.13;;
46589;SDS011;32313;48.722;9.362;2022-08-16T13:50:12;3.40;;;2.13;;
46589;SDS011;32313;48.722;9.362;2022-08-16T13:52:39;3.45;;;2.58;;
46589;SDS011;32313;48.722;9.362;2022-08-16T13:55:07;4.40;;;2.20;;
46589;SDS011;32313;48.722;9.362;2022-08-16T13:57:33;3.83;;;2.10;;
46589;SDS011;32313;48.722;9.362;2022-08-16T13:59:59;3.85;;;2.45;;
46589;SDS011;32313;48.722;9.362;2022-08-16T14:02:25;3.25;;;2.15;;
46589;SDS011;32313;48.722;9.362;2022-08-16T14:04:51;3.35;;;2.40;;
46589;SDS011;32313;48.722;9.362;2022-08-16T14:07:17;2.80;;;2.30;;
46589;SDS011;32313;48.722;9.362;2022-08-16T14:09:43;3.05;;;2.45;;
46589;SDS011;32313;48.722;9.362;2022-08-16T14:12:16;3.75;;;2.25;;
46589;SDS011;32313;48.722;9.362;2022-08-16T14:14:47;3.25;;;2.28;;
46589;SDS011;32313;48.722;9.362;2022-08-16T14:17:15;2.40;;;2.17;;
46589;SDS011;32313;48.722;9.362;2022-08-16T14:19:41;2.83;;;2.50;;
46589;SDS011;32313;48.722;9.362;2022-08-16T14:22:07;3.38;;;1.83;;
46589;SDS011;32313;48.722;9.362;2022-08-16T14:24:34;3.45;;;2.28;;
46589;SDS011;32313;48.722;9.362;2022-08-16T14:27:00;2.72;;;2.40;;
46589;SDS011;32313;48.722;9.362;2022-08-16T14:29:26;3.35;;;2.20;;
46589;SDS011;32313;48.722;9.362;2022-08-16T14:31:57;2.42;;;2.22;;
46589;SDS011;32313;48.722;9.362;2022-08-16T14:34:23;3.38;;;2.33;;
46589;SDS011;32313;48.722;9.362;2022-08-16T14:36:49;2.60;;;2.00;;
46589;SDS011;32313;48.722;9.362;2022-08-16T14:39:14;2.40;;;2.20;;
46589;SDS011;32313;48.722;9.362;2022-08-16T14:41:40;2.70;;;2.38;;